Nanoose Bay, British Columbia

Past 24 Hour Conditions

Date / Time
(PST)
Conditions Temp
(°F)
Humidity
(%)
Dew Point
(°F)
Wind
(mph)
Pressure
(inches)
Visibility
(miles)
30 January 2015
3:00 N/A 38   90 35 W 4 N/A N/A
2:00 N/A 39 87 35 W 7 N/A N/A
1:00 N/A 39 87 36 W 9 N/A N/A
00:00 N/A 39 90 36 calm N/A N/A
29 January 2015
23:00 N/A 40 88 36 WSW 7 N/A N/A
22:00 N/A 41 86 37 W 8 N/A N/A
21:00 N/A 41 88 37 W 8 N/A N/A
20:00 N/A 41 88 38 W 7 N/A N/A
19:00 N/A 41 91 39 WNW 4 N/A N/A
18:00 N/A 42 89 39 calm N/A N/A
17:00 N/A 44 86 40 calm N/A N/A
16:00 N/A 47   76 40 W 6 N/A N/A
15:00 N/A 47   77 40 WNW 9 N/A N/A
14:00 N/A 47   79 41 WNW 11 N/A N/A
13:00 N/A 46 80 40 W 8 N/A N/A
12:00 N/A 45 82 40 WNW 11 N/A N/A
11:00 N/A 43 85 39 W 4 N/A N/A
10:00 N/A 42 87 38 WNW 4 N/A N/A
9:00 N/A 40 90 37 WNW 7 N/A N/A
8:00 N/A 40 91 37 W 5 N/A N/A
7:00 N/A 39 93 38 WNW 2 N/A N/A
6:00 N/A 41 91 39 WNW 2 N/A N/A
5:00 N/A 41 92 38 W 5 N/A N/A
4:00 N/A 40 91 38 calm N/A N/A
3:00 N/A 40 91 38 W 7 N/A N/A
N/A Not available
↑ Highest temperature
↓ Lowest temperature

If you require additional historical weather information, please visit Climate Data Online.

What we are doing

Date modified: